createdAt,value
2017-08-07T00:02:14.774Z,61.30
2017-08-07T00:04:43.034Z,62.00
2017-08-07T00:07:10.598Z,61.00
2017-08-07T00:09:38.075Z,61.50
2017-08-07T00:12:05.532Z,61.20
2017-08-07T00:14:33.803Z,60.90
2017-08-07T00:17:02.066Z,60.90
2017-08-07T00:19:29.532Z,60.80
2017-08-07T00:21:57.755Z,61.30
2017-08-07T00:24:25.223Z,61.20
2017-08-07T00:26:52.710Z,61.40
2017-08-07T00:29:20.161Z,61.50
2017-08-07T00:31:47.816Z,61.70
2017-08-07T00:34:15.393Z,61.90
2017-08-07T00:36:43.711Z,62.80
2017-08-07T00:39:11.235Z,61.70
2017-08-07T00:41:39.518Z,61.50
2017-08-07T00:44:07.762Z,61.80
2017-08-07T00:46:35.347Z,61.70
2017-08-07T00:49:03.572Z,62.20
2017-08-07T00:51:31.068Z,62.10
2017-08-07T00:53:59.388Z,62.20
2017-08-07T00:56:26.894Z,62.10
2017-08-07T00:58:55.908Z,62.30
2017-08-07T01:01:24.280Z,62.20
2017-08-07T01:03:52.501Z,62.40
2017-08-07T01:06:20.017Z,62.40
2017-08-07T01:08:48.282Z,62.90
2017-08-07T01:11:15.833Z,62.80
2017-08-07T01:13:43.315Z,62.80
2017-08-07T01:16:10.845Z,62.80
2017-08-07T01:18:38.411Z,62.90
2017-08-07T01:21:06.691Z,63.50
2017-08-07T01:23:35.059Z,63.30
2017-08-07T01:26:02.676Z,63.30
2017-08-07T01:28:30.186Z,63.50
2017-08-07T01:30:58.445Z,64.70
2017-08-07T01:33:26.024Z,63.80
2017-08-07T01:35:54.300Z,64.00
2017-08-07T01:38:22.667Z,63.90
2017-08-07T01:40:50.946Z,64.00
2017-08-07T01:43:19.220Z,64.10
2017-08-07T01:45:46.779Z,64.10
2017-08-07T01:48:15.056Z,64.50
2017-08-07T01:50:43.312Z,64.90
2017-08-07T01:53:10.882Z,64.40
2017-08-07T01:55:38.362Z,64.40
2017-08-07T01:58:05.923Z,64.30
2017-08-07T02:00:33.581Z,64.70
2017-08-07T02:03:01.816Z,65.20
2017-08-07T02:05:29.345Z,64.40
2017-08-07T02:07:56.827Z,64.60
2017-08-07T02:10:24.360Z,64.80
2017-08-07T02:12:51.841Z,64.70
2017-08-07T02:15:19.312Z,64.90
2017-08-07T02:17:46.780Z,64.90
2017-08-07T02:20:15.033Z,65.60
2017-08-07T02:22:42.511Z,65.10
2017-08-07T02:25:10.123Z,64.90
2017-08-07T02:27:37.601Z,64.90
2017-08-07T02:30:05.091Z,64.80
2017-08-07T02:32:33.344Z,64.70
2017-08-07T02:35:00.816Z,64.70
2017-08-07T02:37:28.308Z,64.60
2017-08-07T02:39:55.842Z,65.00
2017-08-07T02:42:24.091Z,65.10
2017-08-07T02:44:51.554Z,65.00
2017-08-07T02:47:19.137Z,65.10
2017-08-07T02:49:47.452Z,65.20
2017-08-07T02:52:14.940Z,65.20
2017-08-07T02:54:42.419Z,65.20
2017-08-07T02:57:10.695Z,65.40
2017-08-07T02:59:38.972Z,65.60
2017-08-07T03:02:07.234Z,66.40
2017-08-07T03:04:34.807Z,65.60
2017-08-07T03:07:03.089Z,65.90
2017-08-07T03:09:31.362Z,65.90
2017-08-07T03:11:59.632Z,66.10
2017-08-07T03:14:27.115Z,66.00
2017-08-07T03:16:54.600Z,66.10
2017-08-07T03:19:22.073Z,66.00
2017-08-07T03:21:49.569Z,66.10
2017-08-07T03:24:17.826Z,66.10
2017-08-07T03:26:45.287Z,66.10
2017-08-07T03:29:12.842Z,66.20
2017-08-07T03:31:40.323Z,66.40
2017-08-07T03:34:07.872Z,66.10
2017-08-07T03:36:36.146Z,66.10
2017-08-07T03:39:04.416Z,66.10
2017-08-07T03:41:32.796Z,66.00
2017-08-07T03:44:01.117Z,65.90
2017-08-07T03:46:28.629Z,65.90
2017-08-07T03:48:56.876Z,66.30
2017-08-07T03:51:24.405Z,66.00
2017-08-07T03:53:51.924Z,66.40
2017-08-07T03:56:20.190Z,66.30
2017-08-07T03:58:48.428Z,66.10
2017-08-07T04:01:15.916Z,66.10
2017-08-07T04:03:43.478Z,66.20
2017-08-07T04:06:11.041Z,65.80
2017-08-07T04:08:38.593Z,66.00
2017-08-07T04:11:06.166Z,66.30
2017-08-07T04:13:34.434Z,66.30
2017-08-07T04:16:02.716Z,67.00
2017-08-07T04:18:31.091Z,66.20
2017-08-07T04:20:59.335Z,66.10
2017-08-07T04:23:26.832Z,65.90
2017-08-07T04:25:54.325Z,65.90
2017-08-07T04:28:21.836Z,65.80
2017-08-07T04:30:50.101Z,65.60
2017-08-07T04:33:17.683Z,65.60
2017-08-07T04:35:45.960Z,65.50
2017-08-07T04:38:14.233Z,65.30
2017-08-07T04:40:42.498Z,65.00
2017-08-07T04:43:10.774Z,65.20
2017-08-07T04:45:39.071Z,65.20
2017-08-07T04:48:06.613Z,65.10
2017-08-07T04:50:34.887Z,65.20
2017-08-07T04:53:03.164Z,65.20
2017-08-07T04:55:31.438Z,65.00
2017-08-07T04:57:59.714Z,64.90
2017-08-07T05:00:27.961Z,64.50
2017-08-07T05:02:55.550Z,64.50
2017-08-07T05:05:23.031Z,64.40
2017-08-07T05:07:50.521Z,64.20
2017-08-07T05:10:18.028Z,64.00
2017-08-07T05:12:45.505Z,64.00
2017-08-07T05:15:12.987Z,64.00
2017-08-07T05:17:40.491Z,63.30
2017-08-07T05:20:08.722Z,63.20
2017-08-07T05:22:36.223Z,63.20
2017-08-07T05:25:04.492Z,63.20
2017-08-07T05:27:31.960Z,63.10
2017-08-07T05:30:00.218Z,62.80
2017-08-07T05:32:27.804Z,62.80
2017-08-07T05:34:56.071Z,62.10
2017-08-07T05:37:24.347Z,61.20
2017-08-07T05:39:52.631Z,61.20
2017-08-07T05:42:20.888Z,60.60
2017-08-07T05:44:49.139Z,61.40
2017-08-07T05:47:16.718Z,60.20
2017-08-07T05:49:44.290Z,60.30
2017-08-07T05:52:12.899Z,59.40
2017-08-07T05:54:40.384Z,59.30
2017-08-07T05:57:07.889Z,59.10
2017-08-07T05:59:36.146Z,59.10
2017-08-07T06:02:03.635Z,59.00
2017-08-07T06:04:31.276Z,58.10
2017-08-07T06:06:59.546Z,58.60
2017-08-07T06:09:27.151Z,58.50
2017-08-07T06:11:54.684Z,58.40
2017-08-07T06:14:22.947Z,57.60
2017-08-07T06:16:51.215Z,57.20
2017-08-07T06:19:18.690Z,57.50
2017-08-07T06:21:46.960Z,57.30
2017-08-07T06:24:15.221Z,56.20
2017-08-07T06:26:43.459Z,57.40
2017-08-07T06:29:10.955Z,57.10
2017-08-07T06:31:38.423Z,57.00
2017-08-07T06:34:06.672Z,56.40
2017-08-07T06:36:34.250Z,56.30
2017-08-07T06:39:02.506Z,54.50
2017-08-07T06:41:30.108Z,54.40
2017-08-07T06:43:57.593Z,55.20
2017-08-07T06:46:25.108Z,55.20
2017-08-07T06:48:53.351Z,55.50
2017-08-07T06:51:20.934Z,55.40
2017-08-07T06:53:49.201Z,54.70
2017-08-07T06:56:16.670Z,54.70
2017-08-07T06:58:44.947Z,54.00
2017-08-07T07:01:13.220Z,54.30
2017-08-07T07:03:41.495Z,54.30
2017-08-07T07:06:09.818Z,54.30
2017-08-07T07:08:37.313Z,53.60
2017-08-07T07:11:04.782Z,53.40
2017-08-07T07:13:33.049Z,53.70
2017-08-07T07:16:00.536Z,53.30
2017-08-07T07:18:28.086Z,52.00
2017-08-07T07:20:56.302Z,53.80
2017-08-07T07:23:23.796Z,53.70
2017-08-07T07:25:51.350Z,53.30
2017-08-07T07:28:18.821Z,52.00
2017-08-07T07:30:47.101Z,52.00
2017-08-07T07:33:15.371Z,51.00
2017-08-07T07:35:43.734Z,51.70
2017-08-07T07:38:12.024Z,51.40
2017-08-07T07:40:40.296Z,51.30
2017-08-07T07:43:07.849Z,52.50
2017-08-07T07:45:35.327Z,51.60
2017-08-07T07:48:03.600Z,50.60
2017-08-07T07:50:31.841Z,50.60
2017-08-07T07:52:59.328Z,50.60
2017-08-07T07:55:27.643Z,50.40
2017-08-07T07:57:55.122Z,50.40
2017-08-07T08:00:22.591Z,50.40
2017-08-07T08:02:50.071Z,50.20
2017-08-07T08:05:18.388Z,49.40
2017-08-07T08:07:45.855Z,49.70
2017-08-07T08:10:13.353Z,49.10
2017-08-07T08:12:40.913Z,48.70
2017-08-07T08:15:08.477Z,49.90
2017-08-07T08:17:36.756Z,49.70
2017-08-07T08:20:04.991Z,47.70
2017-08-07T08:22:32.574Z,47.20
2017-08-07T08:25:00.818Z,47.60
2017-08-07T08:27:28.278Z,47.50
2017-08-07T08:29:55.774Z,46.40
2017-08-07T08:32:24.006Z,46.70
2017-08-07T08:34:51.472Z,46.00
2017-08-07T08:37:18.948Z,46.80
2017-08-07T08:39:46.447Z,47.30
2017-08-07T08:42:13.918Z,47.80
2017-08-07T08:44:41.399Z,47.90
2017-08-07T08:47:08.876Z,47.60
2017-08-07T08:49:36.456Z,47.50
2017-08-07T08:52:04.707Z,46.60
2017-08-07T08:54:32.266Z,46.50
2017-08-07T08:56:59.827Z,46.00
2017-08-07T08:59:27.317Z,44.00
2017-08-07T09:01:55.550Z,44.50
2017-08-07T09:04:23.024Z,44.40
2017-08-07T09:06:50.588Z,44.60
2017-08-07T09:09:18.067Z,45.40
2017-08-07T09:11:45.604Z,44.40
2017-08-07T09:14:13.884Z,43.30
2017-08-07T09:16:42.301Z,44.00
2017-08-07T09:19:09.807Z,43.90
2017-08-07T09:21:37.275Z,43.80
2017-08-07T09:24:05.539Z,42.40
2017-08-07T09:26:33.104Z,42.30
2017-08-07T09:29:00.579Z,41.60
2017-08-07T09:31:28.815Z,42.10
2017-08-07T09:33:56.340Z,42.00
2017-08-07T09:36:23.808Z,38.90
2017-08-07T09:38:51.291Z,41.60
2017-08-07T09:41:19.574Z,39.20
2017-08-07T09:43:47.136Z,39.10
2017-08-07T09:46:14.616Z,39.00
2017-08-07T09:48:42.867Z,40.20
2017-08-07T09:51:10.422Z,40.20
2017-08-07T09:53:37.983Z,37.80
2017-08-07T09:56:05.463Z,39.50
2017-08-07T09:58:33.769Z,40.20
2017-08-07T10:01:01.393Z,40.10
2017-08-07T10:03:29.647Z,40.00
2017-08-07T10:05:57.219Z,39.90
2017-08-07T10:08:25.463Z,38.90
2017-08-07T10:10:52.938Z,38.80
2017-08-07T10:13:21.178Z,36.80
2017-08-07T10:15:48.679Z,36.20
2017-08-07T10:18:16.250Z,36.70
2017-08-07T10:20:44.565Z,39.10
2017-08-07T10:23:12.034Z,39.10
2017-08-07T10:25:39.528Z,38.10
2017-08-07T10:28:07.088Z,35.90
2017-08-07T10:30:35.372Z,36.40
2017-08-07T10:33:03.620Z,33.50
2017-08-07T10:35:31.090Z,33.40
2017-08-07T10:37:58.657Z,34.10
2017-08-07T10:40:26.980Z,33.30
2017-08-07T10:42:54.496Z,33.30
2017-08-07T10:45:22.873Z,34.90
2017-08-07T10:47:51.147Z,33.40
2017-08-07T10:50:18.704Z,33.40
2017-08-07T10:52:46.259Z,32.90
2017-08-07T10:55:13.726Z,33.00
2017-08-07T10:57:42.083Z,33.80
2017-08-07T11:00:09.542Z,33.70
2017-08-07T11:02:37.014Z,34.30
2017-08-07T11:05:05.294Z,34.00
2017-08-07T11:07:33.566Z,30.40
2017-08-07T11:10:01.809Z,33.50
2017-08-07T11:12:29.294Z,33.50
2017-08-07T11:14:57.586Z,35.60
2017-08-07T11:17:25.850Z,35.50
2017-08-07T11:19:54.127Z,34.20
2017-08-07T11:22:22.368Z,32.70
2017-08-07T11:24:49.842Z,32.60
2017-08-07T11:27:17.314Z,32.40
2017-08-07T11:29:45.566Z,32.90
2017-08-07T11:32:13.040Z,32.80
2017-08-07T11:34:41.292Z,34.00
2017-08-07T11:37:08.758Z,33.30
2017-08-07T11:39:36.332Z,34.00
2017-08-07T11:42:04.620Z,34.60
2017-08-07T11:44:32.846Z,33.90
2017-08-07T11:47:00.335Z,33.80
2017-08-07T11:49:27.819Z,31.50
2017-08-07T11:51:55.277Z,31.40
2017-08-07T11:54:22.826Z,31.80
2017-08-07T11:56:50.308Z,31.90
2017-08-07T11:59:17.869Z,31.60
2017-08-07T12:01:45.375Z,29.90
2017-08-07T12:04:13.649Z,31.30
2017-08-07T12:06:41.220Z,30.60
2017-08-07T12:09:09.470Z,31.70
2017-08-07T12:11:36.939Z,30.90
2017-08-07T12:14:04.506Z,32.40
2017-08-07T12:16:32.063Z,32.30
2017-08-07T12:18:59.624Z,32.70
2017-08-07T12:21:27.107Z,31.80
2017-08-07T12:23:54.581Z,31.90
2017-08-07T12:26:22.048Z,29.20
2017-08-07T12:28:49.559Z,30.30
2017-08-07T12:31:17.835Z,31.80
2017-08-07T12:33:46.214Z,30.80
2017-08-07T12:36:13.771Z,30.70
2017-08-07T12:38:42.055Z,32.00
2017-08-07T12:41:10.327Z,31.20
2017-08-07T12:43:38.675Z,30.30
2017-08-07T12:46:06.242Z,30.10
2017-08-07T12:48:33.802Z,30.00
2017-08-07T12:51:01.354Z,29.20
2017-08-07T12:53:28.870Z,29.60
2017-08-07T12:55:56.350Z,31.90
2017-08-07T12:58:23.826Z,30.30
2017-08-07T13:00:51.393Z,30.00
2017-08-07T13:03:19.005Z,31.10
2017-08-07T13:05:46.519Z,30.00
2017-08-07T13:08:14.796Z,29.60
2017-08-07T13:10:43.056Z,29.70
2017-08-07T13:13:10.531Z,29.70
2017-08-07T13:15:38.909Z,29.30
2017-08-07T13:18:07.160Z,29.60
2017-08-07T13:20:34.641Z,29.60
2017-08-07T13:23:02.887Z,28.70
2017-08-07T13:25:30.357Z,28.60
2017-08-07T13:27:57.936Z,29.40
2017-08-07T13:30:26.184Z,29.40
2017-08-07T13:32:53.669Z,29.40
2017-08-07T13:35:21.947Z,27.80
2017-08-07T13:37:50.214Z,29.60
2017-08-07T13:40:18.475Z,29.70
2017-08-07T13:42:46.043Z,29.60
2017-08-07T13:45:14.287Z,28.80
2017-08-07T13:47:41.787Z,29.10
2017-08-07T13:50:10.063Z,30.60
2017-08-07T13:52:38.422Z,30.20
2017-08-07T13:55:05.903Z,30.10
2017-08-07T13:57:34.159Z,30.60
2017-08-07T14:00:01.723Z,30.50
2017-08-07T14:02:29.960Z,29.40
2017-08-07T14:04:57.479Z,28.90
2017-08-07T14:07:25.010Z,28.70
2017-08-07T14:09:53.292Z,30.10
2017-08-07T14:12:21.518Z,29.90
2017-08-07T14:14:48.999Z,29.80
2017-08-07T14:17:16.596Z,29.80
2017-08-07T14:19:44.080Z,30.20
2017-08-07T14:22:11.533Z,30.30
2017-08-07T14:24:39.016Z,28.50
2017-08-07T14:27:06.498Z,28.70
2017-08-07T14:29:34.076Z,28.50
2017-08-07T14:32:02.340Z,29.10
2017-08-07T14:34:29.806Z,29.10
2017-08-07T14:36:58.074Z,28.50
2017-08-07T14:39:26.370Z,28.40
2017-08-07T14:41:53.890Z,28.30
2017-08-07T14:44:21.462Z,28.50
2017-08-07T14:46:49.711Z,28.00
2017-08-07T14:49:17.183Z,27.40
2017-08-07T14:51:44.760Z,28.70
2017-08-07T14:54:12.989Z,29.00
2017-08-07T14:56:40.478Z,28.90
2017-08-07T14:59:08.030Z,27.60
2017-08-07T15:01:35.595Z,27.50
2017-08-07T15:04:03.167Z,28.00
2017-08-07T15:06:31.422Z,27.80
2017-08-07T15:08:58.991Z,27.70
2017-08-07T15:11:26.472Z,27.50
2017-08-07T15:13:54.028Z,26.90
2017-08-07T15:16:22.279Z,26.80
2017-08-07T15:18:49.738Z,26.30
2017-08-07T15:21:17.298Z,26.70
2017-08-07T15:23:44.767Z,26.70
2017-08-07T15:26:13.082Z,26.50
2017-08-07T15:28:40.570Z,26.40
2017-08-07T15:31:08.153Z,27.90
2017-08-07T15:33:36.400Z,28.50
2017-08-07T15:36:03.875Z,28.30
2017-08-07T15:38:31.345Z,27.80
2017-08-07T15:40:59.585Z,27.40
2017-08-07T15:43:27.075Z,27.40
2017-08-07T15:45:55.366Z,26.80
2017-08-07T15:48:23.593Z,26.80
2017-08-07T15:50:51.079Z,26.60
2017-08-07T15:53:19.412Z,27.40
2017-08-07T15:55:47.113Z,27.30
2017-08-07T15:58:14.696Z,27.10
2017-08-07T16:00:42.223Z,26.20
2017-08-07T16:03:09.858Z,26.30
2017-08-07T16:05:37.356Z,26.70
2017-08-07T16:08:05.631Z,28.90
2017-08-07T16:10:33.900Z,28.00
2017-08-07T16:13:01.462Z,28.00
2017-08-07T16:15:29.025Z,27.60
2017-08-07T16:17:57.282Z,27.20
2017-08-07T16:20:24.851Z,27.10
2017-08-07T16:22:52.415Z,27.40
2017-08-07T16:25:20.659Z,27.00
2017-08-07T16:27:48.142Z,27.00
2017-08-07T16:30:27.426Z,27.90
2017-08-07T16:32:54.921Z,27.50
2017-08-07T16:35:22.500Z,27.90
2017-08-07T16:37:50.778Z,29.00
2017-08-07T16:40:19.042Z,27.70
2017-08-07T16:42:46.606Z,27.60
2017-08-07T16:45:14.846Z,28.70
2017-08-07T16:47:42.308Z,28.20
2017-08-07T16:50:09.871Z,28.70
2017-08-07T16:52:37.356Z,28.30
2017-08-07T16:55:05.603Z,28.30
2017-08-07T16:57:33.074Z,28.20
2017-08-07T17:00:00.568Z,28.50
2017-08-07T17:02:28.104Z,28.90
2017-08-07T17:04:56.359Z,28.70
2017-08-07T17:07:23.825Z,28.40
2017-08-07T17:09:51.290Z,28.30
2017-08-07T17:12:19.569Z,28.40
2017-08-07T17:14:47.883Z,28.60
2017-08-07T17:17:15.357Z,28.50
2017-08-07T17:19:42.857Z,28.90
2017-08-07T17:22:11.132Z,28.70
2017-08-07T17:24:39.435Z,29.00
2017-08-07T17:27:06.969Z,29.00
2017-08-07T17:29:35.203Z,28.60
2017-08-07T17:32:02.674Z,28.60
2017-08-07T17:34:30.174Z,29.10
2017-08-07T17:36:57.713Z,29.50
2017-08-07T17:39:26.036Z,30.90
2017-08-07T17:41:53.544Z,30.60
2017-08-07T17:44:21.830Z,34.20
2017-08-07T17:46:50.143Z,30.60
2017-08-07T17:49:17.668Z,30.50
2017-08-07T17:51:45.927Z,32.50
2017-08-07T17:54:13.396Z,32.50
2017-08-07T17:56:41.655Z,32.90
2017-08-07T17:59:09.143Z,32.90
2017-08-07T18:01:36.687Z,33.20
2017-08-07T18:04:04.969Z,34.50
2017-08-07T18:06:33.210Z,34.80
2017-08-07T18:09:00.702Z,34.70
2017-08-07T18:11:28.938Z,35.40
2017-08-07T18:13:56.522Z,35.30
2017-08-07T18:16:24.792Z,35.50
2017-08-07T18:18:52.342Z,35.40
2017-08-07T18:21:19.913Z,36.30
2017-08-07T18:23:48.153Z,36.40
2017-08-07T18:26:15.649Z,36.60
2017-08-07T18:28:43.910Z,38.00
2017-08-07T18:31:11.527Z,38.00
2017-08-07T18:33:39.085Z,38.60
2017-08-07T18:36:06.642Z,38.00
2017-08-07T18:38:34.112Z,38.00
2017-08-07T18:41:01.587Z,38.40
2017-08-07T18:43:29.076Z,39.40
2017-08-07T18:45:57.302Z,39.20
2017-08-07T18:48:24.794Z,39.10
2017-08-07T18:50:52.347Z,39.70
2017-08-07T18:53:19.834Z,40.00
2017-08-07T18:55:47.319Z,40.30
2017-08-07T18:58:14.822Z,41.00
2017-08-07T19:00:42.378Z,40.90
2017-08-07T19:03:09.859Z,41.10
2017-08-07T19:05:38.085Z,41.20
2017-08-07T19:08:05.571Z,41.20
2017-08-07T19:10:33.138Z,41.10
2017-08-07T19:13:01.454Z,42.00
2017-08-07T19:15:28.967Z,41.90
2017-08-07T19:17:56.531Z,41.90
2017-08-07T19:20:24.763Z,42.40
2017-08-07T19:22:52.244Z,42.30
2017-08-07T19:25:20.582Z,42.90
2017-08-07T19:27:48.096Z,43.00
2017-08-07T19:30:16.357Z,43.40
2017-08-07T19:32:43.914Z,43.30
2017-08-07T19:35:11.488Z,44.00
2017-08-07T19:37:39.767Z,44.30
2017-08-07T19:40:07.999Z,44.90
2017-08-07T19:42:35.458Z,44.50
2017-08-07T19:45:03.063Z,44.80
2017-08-07T19:47:31.298Z,45.10
2017-08-07T19:49:58.794Z,45.10
2017-08-07T19:52:27.070Z,45.30
2017-08-07T19:54:55.344Z,45.40
2017-08-07T19:57:23.600Z,45.80
2017-08-07T19:59:51.091Z,45.70
2017-08-07T20:02:18.633Z,45.60
2017-08-07T20:04:46.923Z,45.90
2017-08-07T20:07:14.452Z,45.80
2017-08-07T20:09:41.928Z,46.10
2017-08-07T20:12:10.236Z,46.50
2017-08-07T20:14:37.709Z,46.50
2017-08-07T20:17:05.200Z,46.70
2017-08-07T20:19:32.767Z,46.40
2017-08-07T20:22:01.043Z,47.10
2017-08-07T20:24:29.319Z,47.50
2017-08-07T20:26:57.596Z,46.70
2017-08-07T20:29:25.996Z,47.90
2017-08-07T20:31:53.543Z,47.30
2017-08-07T20:34:21.801Z,47.50
2017-08-07T20:36:50.092Z,48.10
2017-08-07T20:39:18.306Z,47.90
2017-08-07T20:41:45.805Z,48.40
2017-08-07T20:44:13.284Z,47.90
2017-08-07T20:46:40.789Z,48.40
2017-08-07T20:49:08.290Z,48.10
2017-08-07T20:51:36.531Z,48.10
2017-08-07T20:54:03.991Z,48.10
2017-08-07T20:56:31.571Z,48.00
2017-08-07T20:58:59.136Z,48.50
2017-08-07T21:01:27.405Z,48.60
2017-08-07T21:03:55.696Z,48.70
2017-08-07T21:06:23.936Z,48.40
2017-08-07T21:08:51.414Z,48.30
2017-08-07T21:11:18.940Z,48.70
2017-08-07T21:13:46.436Z,48.50
2017-08-07T21:16:14.708Z,48.90
2017-08-07T21:18:42.992Z,48.80
2017-08-07T21:21:11.246Z,48.90
2017-08-07T21:23:38.824Z,48.90
2017-08-07T21:26:06.367Z,48.90
2017-08-07T21:28:33.826Z,48.80
2017-08-07T21:31:01.388Z,49.10
2017-08-07T21:33:28.968Z,49.00
2017-08-07T21:35:56.442Z,49.00
2017-08-07T21:38:23.930Z,49.20
2017-08-07T21:40:51.405Z,49.30
2017-08-07T21:43:18.965Z,49.00
2017-08-07T21:45:46.458Z,49.00
2017-08-07T21:48:13.991Z,48.90
2017-08-07T21:50:42.313Z,48.70
2017-08-07T21:53:09.813Z,48.80
2017-08-07T21:55:37.288Z,48.90
2017-08-07T21:58:05.561Z,49.00
2017-08-07T22:00:33.847Z,49.50
2017-08-07T22:03:02.112Z,49.20
2017-08-07T22:05:30.490Z,49.10
2017-08-07T22:07:57.960Z,49.30
2017-08-07T22:10:26.194Z,49.70
2017-08-07T22:12:53.666Z,49.70
2017-08-07T22:15:21.125Z,49.90
2017-08-07T22:17:48.593Z,50.00
2017-08-07T22:20:16.875Z,49.20
2017-08-07T22:22:45.126Z,49.70
2017-08-07T22:25:12.678Z,49.60
2017-08-07T22:27:40.159Z,49.70
2017-08-07T22:30:08.430Z,50.00
2017-08-07T22:32:36.688Z,50.00
2017-08-07T22:35:04.279Z,49.90
2017-08-07T22:37:32.500Z,50.00
2017-08-07T22:39:59.986Z,50.00
2017-08-07T22:42:27.601Z,49.80
2017-08-07T22:44:55.140Z,50.00
2017-08-07T22:47:22.670Z,49.70
2017-08-07T22:49:50.341Z,50.60
2017-08-07T22:52:18.571Z,50.10
2017-08-07T22:54:46.051Z,50.00
2017-08-07T22:57:13.556Z,50.20
2017-08-07T22:59:41.132Z,50.10
2017-08-07T23:02:08.616Z,50.50
2017-08-07T23:04:36.089Z,50.50
2017-08-07T23:07:03.572Z,50.50
2017-08-07T23:09:31.925Z,50.50
2017-08-07T23:12:00.175Z,50.50
2017-08-07T23:14:27.673Z,50.40
2017-08-07T23:16:55.934Z,51.00
2017-08-07T23:19:24.216Z,51.20
2017-08-07T23:21:52.483Z,50.80
2017-08-07T23:24:20.043Z,50.80
2017-08-07T23:26:47.610Z,50.90
2017-08-07T23:29:15.879Z,50.80
2017-08-07T23:31:43.358Z,50.80
2017-08-07T23:34:11.601Z,51.30
2017-08-07T23:36:39.158Z,51.20
2017-08-07T23:39:06.823Z,51.40
2017-08-07T23:41:34.390Z,51.60
2017-08-07T23:44:02.052Z,51.50
2017-08-07T23:46:30.372Z,51.80
2017-08-07T23:48:57.867Z,51.70
2017-08-07T23:51:25.347Z,51.70
2017-08-07T23:53:53.623Z,51.70
2017-08-07T23:56:21.899Z,52.00
2017-08-07T23:58:50.174Z,51.80
